Time;durP1;ratioP1;P1;durP2;ratioP2;P2;SDS_P1;SDS_P2;PMS_P1;PMS_P2;Temp;Humidity;BMP_temperature;BMP_pressure;BME280_temperature;BME280_humidity;BME280_pressure;Samples;Min_cycle;Max_cycle;Signal;HPM_P1;HPM_P2
2021/10/06 00:02:17;;;;;;;2.87;1.87;;;;;;;;;;5088741;28;20191;-60
2021/10/06 00:04:43;;;;;;;2.10;1.90;;;;;;;;;;5091596;28;20538;-61
2021/10/06 00:07:09;;;;;;;2.33;1.90;;;;;;;;;;5092428;28;20184;-60
2021/10/06 00:09:35;;;;;;;4.90;2.00;;;;;;;;;;5090639;28;20694;-61
2021/10/06 00:12:01;;;;;;;4.73;2.30;;;;;;;;;;5071020;28;20642;-60
2021/10/06 00:14:27;;;;;;;2.87;2.13;;;;;;;;;;5091958;28;21029;-61
2021/10/06 00:16:53;;;;;;;2.07;1.80;;;;;;;;;;5093390;28;20171;-61
2021/10/06 00:19:20;;;;;;;1.90;1.80;;;;;;;;;;5085637;28;20176;-61
2021/10/06 00:21:46;;;;;;;3.07;2.00;;;;;;;;;;5090954;28;20194;-61
2021/10/06 00:24:12;;;;;;;4.17;2.00;;;;;;;;;;5091921;28;20191;-60
2021/10/06 00:26:38;;;;;;;2.87;1.70;;;;;;;;;;5090833;28;20638;-61
2021/10/06 00:29:06;;;;;;;2.20;1.70;;;;;;;;;;5077632;28;20255;-60
2021/10/06 00:31:32;;;;;;;3.00;1.77;;;;;;;;;;5055591;28;20184;-60
2021/10/06 00:33:58;;;;;;;4.03;2.00;;;;;;;;;;5092498;28;20179;-61
2021/10/06 00:36:24;;;;;;;3.53;1.60;;;;;;;;;;5088643;28;20183;-61
2021/10/06 00:38:50;;;;;;;4.60;1.67;;;;;;;;;;5092423;28;20256;-60
2021/10/06 00:41:16;;;;;;;2.27;1.90;;;;;;;;;;5083857;28;20267;-61
2021/10/06 00:43:42;;;;;;;3.23;1.90;;;;;;;;;;5092431;28;20586;-61
2021/10/06 00:46:08;;;;;;;3.17;1.90;;;;;;;;;;5087186;28;20183;-60
2021/10/06 00:48:34;;;;;;;2.90;1.67;;;;;;;;;;5079372;28;20212;-60
2021/10/06 00:51:00;;;;;;;3.07;2.00;;;;;;;;;;5092022;28;20179;-60
2021/10/06 00:53:27;;;;;;;2.53;1.60;;;;;;;;;;5092192;28;20222;-60
2021/10/06 00:55:53;;;;;;;2.33;1.83;;;;;;;;;;5083187;28;20187;-60
2021/10/06 00:58:20;;;;;;;2.30;1.60;;;;;;;;;;5079643;28;20208;-60
2021/10/06 01:00:46;;;;;;;1.93;1.60;;;;;;;;;;5090350;28;20186;-60
2021/10/06 01:03:12;;;;;;;4.07;1.70;;;;;;;;;;5103376;28;20258;-60
2021/10/06 01:05:38;;;;;;;2.50;1.80;;;;;;;;;;5070757;28;20180;-60
2021/10/06 01:08:05;;;;;;;3.87;1.80;;;;;;;;;;5068808;28;20271;-61
2021/10/06 01:10:31;;;;;;;2.20;1.60;;;;;;;;;;5081290;28;20188;-60
2021/10/06 01:12:57;;;;;;;1.93;1.73;;;;;;;;;;5091285;28;20184;-60
2021/10/06 01:15:23;;;;;;;2.77;1.67;;;;;;;;;;5088764;28;20211;-60
2021/10/06 01:17:49;;;;;;;2.67;1.90;;;;;;;;;;5091028;28;20199;-60
2021/10/06 01:20:16;;;;;;;2.70;1.57;;;;;;;;;;5064976;28;20216;-60
2021/10/06 01:22:42;;;;;;;3.37;1.70;;;;;;;;;;5091683;28;20180;-60
2021/10/06 01:25:09;;;;;;;1.87;1.43;;;;;;;;;;5093766;28;20188;-60
2021/10/06 01:27:36;;;;;;;2.57;1.60;;;;;;;;;;5090502;28;20197;-60
2021/10/06 01:30:04;;;;;;;2.20;1.50;;;;;;;;;;5086197;28;20188;-60
2021/10/06 01:32:34;;;;;;;3.13;1.87;;;;;;;;;;5095238;28;20234;-60
2021/10/06 01:35:03;;;;;;;1.73;1.40;;;;;;;;;;5072484;28;20692;-60
2021/10/06 01:37:29;;;;;;;2.53;1.40;;;;;;;;;;5073336;28;20195;-60
2021/10/06 01:39:56;;;;;;;1.70;1.53;;;;;;;;;;5072383;28;20175;-60
2021/10/06 01:42:22;;;;;;;3.13;1.53;;;;;;;;;;5074714;28;20270;-60
2021/10/06 01:44:48;;;;;;;3.67;2.03;;;;;;;;;;5073333;28;20598;-61
2021/10/06 01:47:19;;;;;;;2.37;1.73;;;;;;;;;;5091894;28;20650;-60
2021/10/06 01:49:46;;;;;;;2.30;1.73;;;;;;;;;;5086337;28;20188;-60
2021/10/06 01:52:12;;;;;;;4.13;1.63;;;;;;;;;;5053499;28;20215;-60
2021/10/06 01:54:38;;;;;;;3.17;1.90;;;;;;;;;;5087568;28;20268;-60
2021/10/06 01:57:04;;;;;;;2.80;1.97;;;;;;;;;;5091267;28;20175;-60
2021/10/06 01:59:30;;;;;;;3.70;1.90;;;;;;;;;;5104846;28;20179;-60
2021/10/06 02:01:57;;;;;;;2.23;1.60;;;;;;;;;;5088679;28;20202;-60
2021/10/06 02:04:23;;;;;;;2.90;1.83;;;;;;;;;;5102310;28;20172;-60
2021/10/06 02:06:48;;;;;;;2.43;1.63;;;;;;;;;;5071795;28;20195;-60
2021/10/06 02:09:15;;;;;;;3.23;1.90;;;;;;;;;;5102739;28;20838;-60
2021/10/06 02:11:41;;;;;;;4.50;1.77;;;;;;;;;;5079408;28;20199;-60
2021/10/06 02:14:07;;;;;;;2.90;1.83;;;;;;;;;;5087735;28;20686;-60
2021/10/06 02:16:33;;;;;;;1.97;1.80;;;;;;;;;;5068767;28;20181;-60
2021/10/06 02:18:59;;;;;;;4.87;1.80;;;;;;;;;;5068944;28;20300;-60
2021/10/06 02:21:25;;;;;;;3.60;1.77;;;;;;;;;;5052183;28;20224;-60
2021/10/06 02:23:51;;;;;;;2.13;1.70;;;;;;;;;;5070972;28;20211;-60
2021/10/06 02:26:17;;;;;;;3.67;1.80;;;;;;;;;;5061286;28;20602;-60
2021/10/06 02:28:43;;;;;;;5.57;1.60;;;;;;;;;;5068962;28;20678;-60
2021/10/06 02:31:09;;;;;;;6.63;1.90;;;;;;;;;;5066826;28;20185;-60
2021/10/06 02:33:35;;;;;;;1.93;1.47;;;;;;;;;;5053327;28;20192;-60
2021/10/06 02:36:01;;;;;;;4.93;1.70;;;;;;;;;;5065947;28;20195;-60
2021/10/06 02:38:27;;;;;;;4.77;1.80;;;;;;;;;;5071275;28;20196;-60
2021/10/06 02:40:53;;;;;;;4.17;2.53;;;;;;;;;;5049528;28;20258;-60
2021/10/06 02:43:19;;;;;;;4.40;2.20;;;;;;;;;;5071132;28;20533;-60
2021/10/06 02:45:45;;;;;;;3.70;2.17;;;;;;;;;;5056915;28;20671;-60
2021/10/06 02:48:11;;;;;;;5.40;1.90;;;;;;;;;;5033242;28;20177;-60
2021/10/06 02:50:37;;;;;;;2.87;2.00;;;;;;;;;;5039137;28;20246;-60
2021/10/06 02:53:03;;;;;;;4.03;1.90;;;;;;;;;;5061835;28;20180;-60
2021/10/06 02:55:29;;;;;;;3.27;1.83;;;;;;;;;;5047401;28;20223;-60
2021/10/06 02:57:55;;;;;;;3.07;2.20;;;;;;;;;;5049850;28;20243;-60
2021/10/06 03:00:22;;;;;;;3.23;2.00;;;;;;;;;;5068174;28;20181;-60
2021/10/06 03:02:48;;;;;;;2.97;2.33;;;;;;;;;;5068564;28;20291;-59
2021/10/06 03:05:14;;;;;;;3.10;2.10;;;;;;;;;;5067003;28;20668;-60
2021/10/06 03:07:41;;;;;;;3.80;1.87;;;;;;;;;;5066414;28;20179;-60
2021/10/06 03:10:08;;;;;;;4.03;1.83;;;;;;;;;;5067370;28;20184;-60
2021/10/06 03:12:34;;;;;;;2.00;1.60;;;;;;;;;;5063081;28;20188;-60
2021/10/06 03:15:00;;;;;;;3.07;2.33;;;;;;;;;;5063407;28;20321;-60
2021/10/06 03:17:26;;;;;;;4.63;2.07;;;;;;;;;;5051435;28;20647;-60
2021/10/06 03:19:52;;;;;;;5.03;2.17;;;;;;;;;;5065954;28;20697;-60
2021/10/06 03:22:18;;;;;;;5.33;1.97;;;;;;;;;;5069651;28;20181;-60
2021/10/06 03:24:44;;;;;;;4.20;1.93;;;;;;;;;;5077890;28;20191;-60
2021/10/06 03:27:11;;;;;;;3.77;2.00;;;;;;;;;;5067683;28;20177;-60
2021/10/06 03:29:38;;;;;;;2.83;1.83;;;;;;;;;;5051057;28;20189;-61
2021/10/06 03:32:04;;;;;;;5.73;3.80;;;;;;;;;;5050782;28;20242;-60
2021/10/06 03:34:30;;;;;;;4.17;2.33;;;;;;;;;;5061264;28;20188;-59
2021/10/06 03:36:56;;;;;;;2.27;1.70;;;;;;;;;;5068265;28;20226;-60
2021/10/06 03:39:22;;;;;;;2.47;1.80;;;;;;;;;;5078453;28;20191;-60
2021/10/06 03:41:48;;;;;;;4.03;1.73;;;;;;;;;;5071692;28;20187;-60
2021/10/06 03:44:14;;;;;;;3.00;1.70;;;;;;;;;;5079563;28;20218;-60
2021/10/06 03:46:40;;;;;;;5.90;1.93;;;;;;;;;;5075337;28;20176;-60
2021/10/06 03:49:06;;;;;;;5.33;2.37;;;;;;;;;;5038650;28;20184;-60
2021/10/06 03:51:32;;;;;;;5.80;2.17;;;;;;;;;;5071357;28;20318;-60
2021/10/06 03:53:58;;;;;;;3.60;1.87;;;;;;;;;;5077735;28;20254;-60
2021/10/06 03:56:24;;;;;;;2.97;2.00;;;;;;;;;;5052194;28;20275;-60
2021/10/06 03:58:50;;;;;;;3.03;1.90;;;;;;;;;;5080109;28;20309;-60
2021/10/06 04:01:16;;;;;;;1.63;1.50;;;;;;;;;;5075117;28;20279;-60
2021/10/06 04:03:42;;;;;;;5.80;1.93;;;;;;;;;;5073708;28;20180;-60
2021/10/06 04:06:08;;;;;;;5.37;3.20;;;;;;;;;;5075514;28;20188;-60
2021/10/06 04:08:34;;;;;;;3.40;1.83;;;;;;;;;;5082693;28;20218;-60
2021/10/06 04:11:01;;;;;;;4.20;1.73;;;;;;;;;;5072485;28;20180;-60
2021/10/06 04:13:27;;;;;;;4.40;1.63;;;;;;;;;;5082750;28;20531;-60
2021/10/06 04:15:53;;;;;;;3.30;1.73;;;;;;;;;;5071366;28;20192;-60
2021/10/06 04:18:19;;;;;;;3.37;1.87;;;;;;;;;;5064012;28;20228;-60
2021/10/06 04:20:45;;;;;;;3.80;1.93;;;;;;;;;;5068686;28;20295;-60
2021/10/06 04:23:12;;;;;;;6.23;3.93;;;;;;;;;;5071078;28;20184;-60
2021/10/06 04:25:38;;;;;;;5.30;1.83;;;;;;;;;;5070537;28;20631;-60
2021/10/06 04:28:04;;;;;;;3.63;2.00;;;;;;;;;;5065094;28;20635;-60
2021/10/06 04:30:30;;;;;;;3.80;1.67;;;;;;;;;;5047131;28;20180;-60
2021/10/06 04:32:56;;;;;;;2.93;1.90;;;;;;;;;;5071570;28;20207;-60
2021/10/06 04:35:22;;;;;;;9.07;1.93;;;;;;;;;;5071066;28;20188;-60
2021/10/06 04:37:49;;;;;;;4.60;2.40;;;;;;;;;;5071645;28;20231;-60
2021/10/06 04:40:15;;;;;;;3.03;1.87;;;;;;;;;;5062664;28;20646;-60
2021/10/06 04:42:44;;;;;;;3.83;1.93;;;;;;;;;;5064725;28;20207;-60
2021/10/06 04:45:10;;;;;;;5.20;1.70;;;;;;;;;;5043294;28;20293;-60
2021/10/06 04:47:36;;;;;;;2.97;1.60;;;;;;;;;;5067389;28;20544;-60
2021/10/06 04:50:02;;;;;;;3.93;1.77;;;;;;;;;;5063572;28;20231;-60
2021/10/06 04:52:28;;;;;;;4.63;3.03;;;;;;;;;;5047891;28;20707;-60
2021/10/06 04:54:55;;;;;;;4.13;1.83;;;;;;;;;;5064484;28;20272;-60
2021/10/06 04:57:21;;;;;;;2.40;1.50;;;;;;;;;;5064488;28;20211;-59
2021/10/06 04:59:47;;;;;;;2.60;1.90;;;;;;;;;;5068102;28;20185;-60
2021/10/06 05:02:13;;;;;;;2.90;1.80;;;;;;;;;;5071060;28;20171;-60
2021/10/06 05:04:39;;;;;;;5.50;1.83;;;;;;;;;;5030991;28;20181;-60
2021/10/06 05:07:06;;;;;;;4.33;1.77;;;;;;;;;;5068983;28;20185;-60
2021/10/06 05:09:32;;;;;;;2.90;1.63;;;;;;;;;;5069242;28;20267;-60
2021/10/06 05:11:58;;;;;;;3.70;1.73;;;;;;;;;;5068917;28;20169;-60
2021/10/06 05:14:25;;;;;;;3.53;1.73;;;;;;;;;;5074680;28;20223;-60
2021/10/06 05:16:52;;;;;;;3.80;1.63;;;;;;;;;;5070297;28;20753;-60
2021/10/06 05:19:19;;;;;;;2.90;1.63;;;;;;;;;;5070256;28;20228;-60
2021/10/06 05:21:45;;;;;;;3.97;2.00;;;;;;;;;;5069648;28;20607;-60
2021/10/06 05:24:11;;;;;;;2.43;1.80;;;;;;;;;;5059195;28;20165;-60
2021/10/06 05:26:37;;;;;;;4.83;1.67;;;;;;;;;;5050054;28;20623;-60
2021/10/06 05:29:03;;;;;;;4.10;1.70;;;;;;;;;;5059074;28;20176;-60
2021/10/06 05:31:29;;;;;;;2.60;1.70;;;;;;;;;;5067518;28;20184;-60
2021/10/06 05:33:56;;;;;;;2.73;1.93;;;;;;;;;;5070843;28;20718;-60
2021/10/06 05:36:23;;;;;;;3.63;1.60;;;;;;;;;;5060081;28;20648;-60
2021/10/06 05:38:49;;;;;;;4.20;1.70;;;;;;;;;;5073587;28;20231;-60
2021/10/06 05:41:15;;;;;;;2.10;1.70;;;;;;;;;;5050252;28;20202;-60
2021/10/06 05:43:41;;;;;;;2.97;2.03;;;;;;;;;;5070338;28;20770;-60
2021/10/06 05:46:07;;;;;;;2.63;1.70;;;;;;;;;;5067575;28;20615;-60
2021/10/06 05:48:33;;;;;;;2.63;1.80;;;;;;;;;;5069657;28;20192;-60
2021/10/06 05:50:59;;;;;;;3.93;1.83;;;;;;;;;;5047688;28;20173;-60
2021/10/06 05:53:26;;;;;;;2.83;1.80;;;;;;;;;;5059181;28;20188;-60
2021/10/06 05:55:52;;;;;;;3.10;1.90;;;;;;;;;;5057566;28;20180;-60
2021/10/06 05:58:19;;;;;;;4.77;1.33;;;;;;;;;;5055762;28;20322;-60
2021/10/06 06:00:45;;;;;;;4.20;1.93;;;;;;;;;;5068977;28;20215;-60
2021/10/06 06:03:11;;;;;;;4.13;1.87;;;;;;;;;;5069207;28;20650;-60
2021/10/06 06:05:40;;;;;;;3.00;1.77;;;;;;;;;;5069427;28;20188;-60
2021/10/06 06:08:07;;;;;;;4.80;2.10;;;;;;;;;;5067241;28;20228;-60
2021/10/06 06:10:33;;;;;;;3.43;1.30;;;;;;;;;;5076491;28;20168;-60
2021/10/06 06:12:59;;;;;;;2.80;1.70;;;;;;;;;;5068285;28;20812;-60
2021/10/06 06:15:25;;;;;;;3.17;1.50;;;;;;;;;;5068455;28;20231;-60
2021/10/06 06:17:51;;;;;;;3.17;1.90;;;;;;;;;;5050771;28;20203;-60
2021/10/06 06:20:23;;;;;;;3.83;1.80;;;;;;;;;;5075668;28;20211;-60
2021/10/06 06:22:49;;;;;;;2.70;1.77;;;;;;;;;;5064912;28;20185;-60
2021/10/06 06:25:15;;;;;;;9.33;2.00;;;;;;;;;;5077902;28;20291;-60
2021/10/06 06:27:42;;;;;;;4.70;1.87;;;;;;;;;;5049419;28;20216;-60
2021/10/06 06:30:09;;;;;;;2.60;1.70;;;;;;;;;;5048927;28;20739;-60
2021/10/06 06:32:35;;;;;;;2.90;1.77;;;;;;;;;;5041029;28;20202;-60
2021/10/06 06:35:01;;;;;;;1.60;1.40;;;;;;;;;;5061292;28;20184;-61
2021/10/06 06:37:27;;;;;;;4.97;1.83;;;;;;;;;;5046772;28;20538;-60
2021/10/06 06:39:53;;;;;;;6.33;1.90;;;;;;;;;;5064463;28;20651;-60
2021/10/06 06:42:20;;;;;;;3.80;1.70;;;;;;;;;;5051720;28;20183;-60
2021/10/06 06:44:46;;;;;;;4.73;1.70;;;;;;;;;;5077841;28;20471;-61
2021/10/06 06:47:12;;;;;;;2.93;1.33;;;;;;;;;;5070623;28;20599;-60
2021/10/06 06:49:38;;;;;;;3.33;1.93;;;;;;;;;;5051769;28;20714;-60
2021/10/06 06:52:04;;;;;;;3.67;1.90;;;;;;;;;;5067985;28;20180;-61
2021/10/06 06:54:30;;;;;;;3.33;1.63;;;;;;;;;;5049922;28;20200;-61
2021/10/06 06:56:56;;;;;;;5.13;1.73;;;;;;;;;;5047160;28;20196;-61
2021/10/06 06:59:22;;;;;;;5.93;1.73;;;;;;;;;;5051072;28;20679;-60
2021/10/06 07:01:49;;;;;;;2.77;1.40;;;;;;;;;;5064102;28;20187;-60
2021/10/06 07:04:15;;;;;;;3.37;1.70;;;;;;;;;;5068210;28;20436;-61
2021/10/06 07:06:41;;;;;;;5.33;2.10;;;;;;;;;;5063728;28;20714;-60
2021/10/06 07:09:08;;;;;;;2.60;1.97;;;;;;;;;;5068112;28;20215;-60
2021/10/06 07:11:35;;;;;;;1.93;1.50;;;;;;;;;;5068021;28;20215;-60
2021/10/06 07:14:01;;;;;;;2.77;1.80;;;;;;;;;;5071162;28;20224;-60
2021/10/06 07:16:27;;;;;;;1.97;1.60;;;;;;;;;;5071132;28;20215;-60
2021/10/06 07:18:53;;;;;;;1.57;1.40;;;;;;;;;;5074820;28;20211;-60
2021/10/06 07:21:22;;;;;;;3.00;1.60;;;;;;;;;;5069061;28;20187;-60
2021/10/06 07:23:49;;;;;;;4.40;1.70;;;;;;;;;;5053222;28;20302;-61
2021/10/06 07:26:16;;;;;;;3.23;1.70;;;;;;;;;;5069928;28;20177;-60
2021/10/06 07:28:42;;;;;;;3.93;2.10;;;;;;;;;;5037370;28;20549;-60
2021/10/06 07:31:08;;;;;;;3.73;1.80;;;;;;;;;;5071629;28;20184;-60
2021/10/06 07:33:35;;;;;;;3.03;1.90;;;;;;;;;;5071892;28;20683;-60
2021/10/06 07:36:01;;;;;;;2.37;1.87;;;;;;;;;;5071188;28;20908;-60
2021/10/06 07:38:27;;;;;;;2.47;1.77;;;;;;;;;;5072332;28;20552;-60
2021/10/06 07:40:54;;;;;;;3.37;1.70;;;;;;;;;;5053464;28;20624;-60
2021/10/06 07:43:20;;;;;;;5.43;1.70;;;;;;;;;;5047032;28;20208;-61
2021/10/06 07:45:46;;;;;;;2.70;1.53;;;;;;;;;;5071338;28;20187;-60
2021/10/06 07:48:12;;;;;;;6.80;2.20;;;;;;;;;;5071579;28;20207;-61
2021/10/06 07:50:38;;;;;;;2.90;2.00;;;;;;;;;;5052946;28;20192;-60
2021/10/06 07:53:05;;;;;;;3.20;1.83;;;;;;;;;;5042575;28;20207;-60
2021/10/06 07:55:31;;;;;;;1.80;1.50;;;;;;;;;;5074588;28;20629;-61
2021/10/06 07:57:57;;;;;;;3.77;2.07;;;;;;;;;;5062484;28;20721;-61
2021/10/06 08:00:24;;;;;;;2.80;1.63;;;;;;;;;;5050175;28;20195;-60
2021/10/06 08:02:50;;;;;;;5.30;1.73;;;;;;;;;;5053802;28;20642;-60
2021/10/06 08:05:16;;;;;;;6.27;2.40;;;;;;;;;;5070668;28;20181;-60
2021/10/06 08:07:42;;;;;;;3.90;1.90;;;;;;;;;;5063198;28;20187;-60
2021/10/06 08:10:09;;;;;;;5.00;2.00;;;;;;;;;;5035362;28;20177;-60
2021/10/06 08:12:35;;;;;;;6.63;1.80;;;;;;;;;;5053405;28;20180;-60
2021/10/06 08:15:01;;;;;;;2.60;1.67;;;;;;;;;;5068836;28;20254;-61
2021/10/06 08:17:28;;;;;;;3.33;1.70;;;;;;;;;;5094244;28;20514;-61
2021/10/06 08:19:54;;;;;;;4.27;1.60;;;;;;;;;;5085040;28;20262;-60
2021/10/06 08:22:20;;;;;;;2.93;1.87;;;;;;;;;;5075698;28;20179;-61
2021/10/06 08:24:47;;;;;;;3.97;1.90;;;;;;;;;;5089219;28;20184;-60
2021/10/06 08:27:13;;;;;;;2.67;1.77;;;;;;;;;;5073116;28;20201;-60
2021/10/06 08:29:40;;;;;;;4.13;1.93;;;;;;;;;;5089381;28;20183;-60
2021/10/06 08:32:06;;;;;;;4.50;2.13;;;;;;;;;;5075668;28;20704;-60
2021/10/06 08:34:32;;;;;;;4.67;2.33;;;;;;;;;;5105517;28;20187;-60
2021/10/06 08:36:58;;;;;;;8.37;1.83;;;;;;;;;;5073432;28;20183;-60
2021/10/06 08:39:25;;;;;;;4.13;1.97;;;;;;;;;;5054734;28;20200;-60
2021/10/06 08:41:51;;;;;;;3.67;1.37;;;;;;;;;;5071708;28;20615;-60
2021/10/06 08:44:18;;;;;;;2.47;1.73;;;;;;;;;;5090933;28;20222;-60
2021/10/06 08:46:44;;;;;;;3.27;1.70;;;;;;;;;;5091383;28;20622;-60
2021/10/06 08:49:10;;;;;;;2.80;1.80;;;;;;;;;;5091914;28;20210;-60
2021/10/06 08:51:36;;;;;;;4.00;1.97;;;;;;;;;;5090718;28;20195;-61
2021/10/06 08:54:02;;;;;;;1.97;1.50;;;;;;;;;;5091027;28;20175;-61
2021/10/06 08:56:29;;;;;;;2.60;1.83;;;;;;;;;;5069149;28;20658;-61
2021/10/06 08:58:55;;;;;;;4.50;1.67;;;;;;;;;;5090645;28;20195;-61
2021/10/06 09:01:25;;;;;;;1.67;1.53;;;;;;;;;;5074806;28;20195;-60
2021/10/06 09:03:59;;;;;;;3.53;1.80;;;;;;;;;;5111703;28;20521;-61
2021/10/06 09:06:32;;;;;;;1.77;1.50;;;;;;;;;;5092072;28;20258;-60
2021/10/06 09:08:58;;;;;;;4.73;1.93;;;;;;;;;;5093460;28;20182;-61
2021/10/06 09:11:31;;;;;;;2.77;1.63;;;;;;;;;;5092634;28;20187;-61
2021/10/06 09:13:57;;;;;;;2.33;1.53;;;;;;;;;;5072775;28;20216;-61
2021/10/06 09:16:25;;;;;;;2.40;1.73;;;;;;;;;;5050402;28;20611;-60
2021/10/06 09:18:51;;;;;;;5.40;2.20;;;;;;;;;;5055399;28;20250;-60
2021/10/06 09:21:17;;;;;;;3.33;1.60;;;;;;;;;;5067881;28;20187;-61
2021/10/06 09:23:44;;;;;;;1.70;1.40;;;;;;;;;;5053315;28;20655;-60
2021/10/06 09:26:11;;;;;;;2.20;1.77;;;;;;;;;;5058441;28;20928;-60
2021/10/06 09:28:49;;;;;;;4.13;1.90;;;;;;;;;;5051517;28;20674;-60
2021/10/06 09:31:18;;;;;;;4.73;2.03;;;;;;;;;;5063754;28;20493;-60
2021/10/06 09:33:51;;;;;;;4.80;1.90;;;;;;;;;;5067109;28;20210;-60
2021/10/06 09:36:25;;;;;;;2.73;1.83;;;;;;;;;;5066549;28;20175;-60
2021/10/06 09:38:52;;;;;;;4.63;1.60;;;;;;;;;;5051543;28;20222;-60
2021/10/06 09:41:25;;;;;;;2.30;1.50;;;;;;;;;;5068488;28;20191;-60
2021/10/06 09:44:07;;;;;;;3.17;2.20;;;;;;;;;;5070614;28;20179;-60
2021/10/06 09:46:34;;;;;;;2.63;1.67;;;;;;;;;;5070125;28;20177;-60
2021/10/06 09:49:00;;;;;;;3.83;1.70;;;;;;;;;;5071136;28;20174;-60
2021/10/06 09:51:26;;;;;;;1.50;1.40;;;;;;;;;;5069553;28;20702;-60
2021/10/06 09:53:54;;;;;;;3.23;1.57;;;;;;;;;;5069442;28;20177;-60
2021/10/06 09:56:20;;;;;;;3.10;1.80;;;;;;;;;;5037975;28;20284;-60
2021/10/06 09:58:47;;;;;;;3.00;1.70;;;;;;;;;;5070567;28;20208;-60
2021/10/06 10:01:14;;;;;;;3.17;1.73;;;;;;;;;;5069387;28;20535;-60
2021/10/06 10:03:40;;;;;;;2.13;1.47;;;;;;;;;;5070733;28;20298;-60
2021/10/06 10:06:06;;;;;;;3.53;2.40;;;;;;;;;;5064329;28;20255;-60
2021/10/06 10:08:33;;;;;;;2.27;1.60;;;;;;;;;;5035249;28;20230;-61
2021/10/06 10:10:59;;;;;;;3.70;1.40;;;;;;;;;;5067171;28;20180;-61
2021/10/06 10:13:25;;;;;;;1.77;1.47;;;;;;;;;;5069556;28;20302;-61
2021/10/06 10:15:51;;;;;;;2.83;1.60;;;;;;;;;;5091638;28;20730;-61
2021/10/06 10:18:18;;;;;;;3.07;1.67;;;;;;;;;;5089335;28;20196;-60
2021/10/06 10:20:45;;;;;;;3.20;2.33;;;;;;;;;;5088829;28;20184;-61
2021/10/06 10:23:17;;;;;;;2.47;1.77;;;;;;;;;;5089538;28;20266;-61
2021/10/06 10:25:44;;;;;;;4.37;1.70;;;;;;;;;;5072931;28;20175;-61
2021/10/06 10:28:12;;;;;;;2.63;1.60;;;;;;;;;;5071681;28;20634;-61
2021/10/06 10:30:58;;;;;;;2.93;1.53;;;;;;;;;;5094248;28;20217;-61
2021/10/06 10:33:42;;;;;;;1.53;1.40;;;;;;;;;;5070145;28;20363;-61
2021/10/06 10:36:40;;;;;;;2.60;1.40;;;;;;;;;;5092601;28;20179;-61
2021/10/06 10:39:45;;;;;;;1.97;1.60;;;;;;;;;;5085927;28;20577;-61
2021/10/06 10:42:12;;;;;;;1.57;1.17;;;;;;;;;;4988460;28;20663;-61
2021/10/06 10:44:39;;;;;;;3.10;1.30;;;;;;;;;;5006639;28;20208;-61
2021/10/06 10:47:06;;;;;;;2.87;1.67;;;;;;;;;;5049018;28;20678;-61
2021/10/06 10:49:45;;;;;;;1.73;1.50;;;;;;;;;;5071709;28;20286;-61
2021/10/06 10:52:12;;;;;;;1.70;1.37;;;;;;;;;;5073272;28;20187;-61
2021/10/06 10:54:42;;;;;;;2.70;1.53;;;;;;;;;;5076090;28;20213;-61
2021/10/06 10:57:18;;;;;;;1.70;1.60;;;;;;;;;;5070052;28;20210;-61
2021/10/06 10:59:46;;;;;;;1.60;1.50;;;;;;;;;;5077822;28;20306;-61
2021/10/06 11:02:23;;;;;;;1.93;1.60;;;;;;;;;;5082851;28;20180;-61
2021/10/06 11:04:56;;;;;;;1.50;1.40;;;;;;;;;;5068280;28;20176;-61
2021/10/06 11:07:23;;;;;;;4.23;1.80;;;;;;;;;;5071121;28;20164;-61
2021/10/06 11:09:50;;;;;;;2.10;1.63;;;;;;;;;;5070296;28;20200;-61
2021/10/06 11:12:19;;;;;;;4.10;1.60;;;;;;;;;;5087386;28;20191;-61
2021/10/06 11:15:07;;;;;;;2.60;1.70;;;;;;;;;;5084470;28;20228;-61
2021/10/06 11:17:34;;;;;;;2.20;1.50;;;;;;;;;;5051666;28;20687;-61
2021/10/06 11:20:00;;;;;;;1.77;1.67;;;;;;;;;;5050877;28;20263;-61
2021/10/06 11:22:30;;;;;;;1.40;1.30;;;;;;;;;;5068966;28;20169;-61
2021/10/06 11:25:00;;;;;;;1.67;1.57;;;;;;;;;;5052017;28;20208;-61
2021/10/06 11:27:28;;;;;;;1.57;1.47;;;;;;;;;;5068510;28;20222;-60
2021/10/06 11:29:58;;;;;;;1.87;1.50;;;;;;;;;;5069158;28;20176;-60
2021/10/06 11:32:24;;;;;;;1.90;1.50;;;;;;;;;;5068546;28;20192;-60
2021/10/06 11:34:51;;;;;;;4.10;1.93;;;;;;;;;;5068732;28;20264;-60
2021/10/06 11:37:19;;;;;;;1.50;1.40;;;;;;;;;;5068591;28;20184;-60
2021/10/06 11:39:45;;;;;;;2.30;1.50;;;;;;;;;;5060169;28;20213;-61
2021/10/06 11:42:11;;;;;;;1.73;1.63;;;;;;;;;;5068094;28;20208;-61
2021/10/06 11:44:38;;;;;;;2.83;2.00;;;;;;;;;;5067925;28;20189;-60
2021/10/06 11:47:08;;;;;;;2.90;1.70;;;;;;;;;;5068241;28;20209;-60
2021/10/06 11:49:39;;;;;;;2.00;1.37;;;;;;;;;;5085905;28;20260;-60
2021/10/06 11:52:06;;;;;;;2.37;1.60;;;;;;;;;;5068064;28;20211;-61
2021/10/06 11:54:32;;;;;;;1.40;1.30;;;;;;;;;;5054927;28;20225;-61
2021/10/06 11:57:00;;;;;;;2.43;1.50;;;;;;;;;;5065510;28;20222;-60
2021/10/06 11:59:30;;;;;;;1.93;1.80;;;;;;;;;;5051645;28;20257;-60
2021/10/06 12:01:57;;;;;;;1.80;1.70;;;;;;;;;;5075837;28;20180;-61
2021/10/06 12:04:27;;;;;;;2.83;2.00;;;;;;;;;;5068979;28;20639;-61
2021/10/06 12:06:59;;;;;;;1.60;1.50;;;;;;;;;;5053477;28;20173;-60
2021/10/06 12:09:26;;;;;;;1.60;1.50;;;;;;;;;;5072111;28;20227;-60
2021/10/06 12:11:52;;;;;;;1.67;1.57;;;;;;;;;;5070217;28;20177;-60
2021/10/06 12:14:27;;;;;;;2.15;1.85;;;;;;;;;;5063441;28;20430;-61
2021/10/06 12:16:57;;;;;;;1.50;1.40;;;;;;;;;;5086896;28;20175;-61
2021/10/06 12:19:26;;;;;;;3.47;1.90;;;;;;;;;;5072793;28;20257;-61
2021/10/06 12:21:53;;;;;;;2.00;1.63;;;;;;;;;;5091301;28;20191;-61
2021/10/06 12:24:21;;;;;;;1.63;1.53;;;;;;;;;;5075059;28;20168;-61
2021/10/06 12:26:48;;;;;;;1.93;1.73;;;;;;;;;;5090562;28;20230;-61
2021/10/06 12:29:15;;;;;;;1.93;1.73;;;;;;;;;;5070878;28;20168;-61
2021/10/06 12:31:42;;;;;;;3.70;2.50;;;;;;;;;;5098419;28;20218;-60
2021/10/06 12:34:12;;;;;;;2.30;2.10;;;;;;;;;;5072574;28;20561;-60
2021/10/06 12:36:45;;;;;;;3.40;2.27;;;;;;;;;;5090942;28;20179;-59
2021/10/06 12:39:13;;;;;;;2.53;2.10;;;;;;;;;;5090413;28;20248;-59
2021/10/06 12:41:40;;;;;;;2.30;2.10;;;;;;;;;;5092647;28;20654;-59
2021/10/06 12:44:17;;;;;;;6.93;2.50;;;;;;;;;;5112759;28;20262;-61
2021/10/06 12:46:43;;;;;;;2.10;1.90;;;;;;;;;;5074859;28;20167;-61
2021/10/06 12:49:11;;;;;;;2.73;2.47;;;;;;;;;;5107214;28;20224;-61
2021/10/06 12:51:38;;;;;;;4.43;2.23;;;;;;;;;;5097444;28;20634;-61
2021/10/06 12:54:15;;;;;;;2.60;2.40;;;;;;;;;;5092925;28;20668;-61
2021/10/06 12:56:42;;;;;;;2.33;2.10;;;;;;;;;;5091925;28;20578;-61
2021/10/06 12:59:11;;;;;;;4.23;3.07;;;;;;;;;;5097176;28;20288;-62
2021/10/06 13:01:39;;;;;;;2.70;2.50;;;;;;;;;;5079220;28;20179;-62
2021/10/06 13:04:09;;;;;;;3.00;2.57;;;;;;;;;;5105238;28;20629;-61
2021/10/06 13:06:35;;;;;;;2.27;2.07;;;;;;;;;;5074895;28;20610;-60
2021/10/06 13:09:04;;;;;;;2.40;2.20;;;;;;;;;;5109899;28;20331;-61
2021/10/06 13:11:34;;;;;;;2.40;2.13;;;;;;;;;;5086913;28;20210;-61
2021/10/06 13:14:01;;;;;;;5.57;2.47;;;;;;;;;;5092038;28;20724;-62
2021/10/06 13:16:27;;;;;;;2.60;2.40;;;;;;;;;;5082502;28;20187;-61
2021/10/06 13:18:54;;;;;;;3.70;2.20;;;;;;;;;;5080528;28;20212;-61
2021/10/06 13:21:23;;;;;;;2.50;2.23;;;;;;;;;;5058766;28;20230;-61
2021/10/06 13:23:50;;;;;;;2.40;2.20;;;;;;;;;;5055897;28;20180;-61
2021/10/06 13:26:16;;;;;;;2.50;2.30;;;;;;;;;;5049745;28;20180;-61
2021/10/06 13:28:43;;;;;;;2.90;2.20;;;;;;;;;;5072201;28;20196;-61
2021/10/06 13:31:10;;;;;;;2.63;2.27;;;;;;;;;;5054129;28;20238;-61
2021/10/06 13:33:39;;;;;;;2.97;2.70;;;;;;;;;;5050744;28;20314;-61
2021/10/06 13:36:09;;;;;;;2.90;2.70;;;;;;;;;;5052493;28;20193;-61
2021/10/06 13:38:36;;;;;;;3.00;2.70;;;;;;;;;;5072310;28;20200;-60
2021/10/06 13:41:02;;;;;;;2.77;2.47;;;;;;;;;;5055477;28;20185;-62
2021/10/06 13:43:32;;;;;;;3.40;2.50;;;;;;;;;;5051918;28;20186;-62
2021/10/06 13:45:59;;;;;;;2.60;2.40;;;;;;;;;;5051332;28;20659;-62
2021/10/06 13:48:25;;;;;;;2.60;2.40;;;;;;;;;;5055015;28;20692;-62
2021/10/06 13:50:53;;;;;;;3.13;2.83;;;;;;;;;;5051355;28;20189;-62
2021/10/06 13:53:19;;;;;;;4.03;3.00;;;;;;;;;;5071383;28;20690;-61
2021/10/06 13:55:45;;;;;;;3.60;2.90;;;;;;;;;;5065699;28;20544;-61
2021/10/06 13:58:11;;;;;;;2.77;2.50;;;;;;;;;;5060253;28;20192;-61
2021/10/06 14:00:37;;;;;;;3.33;3.03;;;;;;;;;;5075881;28;20192;-61
2021/10/06 14:03:04;;;;;;;3.10;2.80;;;;;;;;;;5069283;28;20678;-60
2021/10/06 14:05:31;;;;;;;5.03;3.13;;;;;;;;;;5051973;28;20777;-60
2021/10/06 14:07:57;;;;;;;3.53;2.87;;;;;;;;;;5063953;28;20275;-61
2021/10/06 14:10:24;;;;;;;3.13;2.80;;;;;;;;;;5066801;28;20180;-61
2021/10/06 14:12:51;;;;;;;3.17;2.90;;;;;;;;;;5071247;28;20820;-61
2021/10/06 14:15:17;;;;;;;3.40;3.10;;;;;;;;;;5078159;28;20640;-61
2021/10/06 14:17:44;;;;;;;3.57;3.23;;;;;;;;;;5070075;28;20184;-62
2021/10/06 14:20:10;;;;;;;3.20;3.00;;;;;;;;;;5070575;28;20647;-62
2021/10/06 14:22:41;;;;;;;3.53;3.20;;;;;;;;;;5070615;28;20172;-61
2021/10/06 14:25:08;;;;;;;3.50;3.10;;;;;;;;;;5070094;28;20180;-62
2021/10/06 14:27:34;;;;;;;4.30;3.90;;;;;;;;;;5067101;28;20190;-62
2021/10/06 14:30:00;;;;;;;3.60;3.03;;;;;;;;;;5064759;28;20179;-62
2021/10/06 14:32:26;;;;;;;4.47;3.97;;;;;;;;;;5055138;28;20479;-61
2021/10/06 14:34:52;;;;;;;4.30;3.67;;;;;;;;;;5057186;28;20194;-61
2021/10/06 14:37:18;;;;;;;4.53;3.70;;;;;;;;;;5073361;28;20190;-61
2021/10/06 14:39:45;;;;;;;3.77;3.47;;;;;;;;;;5073447;28;20283;-61
2021/10/06 14:42:11;;;;;;;5.20;3.43;;;;;;;;;;5089579;28;20635;-62
2021/10/06 14:44:38;;;;;;;4.93;3.63;;;;;;;;;;5074882;28;20179;-62